sensor_id;sensor_type;location;lat;lon;timestamp;temperature;humidity
10583;DHT22;33679;51.218;6.786;2022-08-16T00:00:20;27.30;99.90
10583;DHT22;33679;51.218;6.786;2022-08-16T00:02:48;27.30;99.90
10583;DHT22;33679;51.218;6.786;2022-08-16T00:05:15;27.30;99.90
10583;DHT22;33679;51.218;6.786;2022-08-16T00:07:44;27.30;99.90
10583;DHT22;33679;51.218;6.786;2022-08-16T00:10:13;27.30;99.90
10583;DHT22;33679;51.218;6.786;2022-08-16T00:12:41;27.30;99.90
10583;DHT22;33679;51.218;6.786;2022-08-16T00:15:12;27.30;99.90
10583;DHT22;33679;51.218;6.786;2022-08-16T00:17:40;27.30;99.90
10583;DHT22;33679;51.218;6.786;2022-08-16T00:20:10;27.20;99.90
10583;DHT22;33679;51.218;6.786;2022-08-16T00:22:40;27.20;99.90
10583;DHT22;33679;51.218;6.786;2022-08-16T00:25:12;27.20;99.90
10583;DHT22;33679;51.218;6.786;2022-08-16T00:27:40;27.20;99.90
10583;DHT22;33679;51.218;6.786;2022-08-16T00:30:19;27.10;99.90
10583;DHT22;33679;51.218;6.786;2022-08-16T00:32:49;27.20;99.90
10583;DHT22;33679;51.218;6.786;2022-08-16T00:35:25;27.10;99.90
10583;DHT22;33679;51.218;6.786;2022-08-16T00:37:52;27.10;99.90
10583;DHT22;33679;51.218;6.786;2022-08-16T00:40:24;27.10;99.90
10583;DHT22;33679;51.218;6.786;2022-08-16T00:42:52;27.10;99.90
10583;DHT22;33679;51.218;6.786;2022-08-16T00:45:30;27.10;99.90
10583;DHT22;33679;51.218;6.786;2022-08-16T00:48:04;27.10;99.90
10583;DHT22;33679;51.218;6.786;2022-08-16T00:50:37;27.10;99.90
10583;DHT22;33679;51.218;6.786;2022-08-16T00:53:08;27.10;99.90
10583;DHT22;33679;51.218;6.786;2022-08-16T00:55:45;27.10;99.90
10583;DHT22;33679;51.218;6.786;2022-08-16T00:58:17;27.10;99.90
10583;DHT22;33679;51.218;6.786;2022-08-16T01:00:46;27.10;99.90
10583;DHT22;33679;51.218;6.786;2022-08-16T01:03:20;27.10;99.90
10583;DHT22;33679;51.218;6.786;2022-08-16T01:05:48;27.10;99.90
10583;DHT22;33679;51.218;6.786;2022-08-16T01:08:21;27.10;99.90
10583;DHT22;33679;51.218;6.786;2022-08-16T01:10:55;27.10;99.90
10583;DHT22;33679;51.218;6.786;2022-08-16T01:13:25;27.10;99.90
10583;DHT22;33679;51.218;6.786;2022-08-16T01:15:56;27.10;99.90
10583;DHT22;33679;51.218;6.786;2022-08-16T01:18:28;27.00;99.90
10583;DHT22;33679;51.218;6.786;2022-08-16T01:21:03;27.00;99.90
10583;DHT22;33679;51.218;6.786;2022-08-16T01:23:47;27.00;99.90
10583;DHT22;33679;51.218;6.786;2022-08-16T01:26:16;27.00;99.90
10583;DHT22;33679;51.218;6.786;2022-08-16T01:28:44;27.00;99.90
10583;DHT22;33679;51.218;6.786;2022-08-16T01:31:13;27.00;99.90
10583;DHT22;33679;51.218;6.786;2022-08-16T01:33:43;27.00;99.90
10583;DHT22;33679;51.218;6.786;2022-08-16T01:36:13;27.00;99.90
10583;DHT22;33679;51.218;6.786;2022-08-16T01:38:46;26.90;99.90
10583;DHT22;33679;51.218;6.786;2022-08-16T01:41:20;26.90;99.90
10583;DHT22;33679;51.218;6.786;2022-08-16T01:43:49;26.80;99.90
10583;DHT22;33679;51.218;6.786;2022-08-16T01:46:21;26.80;99.90
10583;DHT22;33679;51.218;6.786;2022-08-16T01:48:53;26.80;99.90
10583;DHT22;33679;51.218;6.786;2022-08-16T01:51:21;26.70;99.90
10583;DHT22;33679;51.218;6.786;2022-08-16T01:53:49;26.70;99.90
10583;DHT22;33679;51.218;6.786;2022-08-16T01:56:27;26.70;99.90
10583;DHT22;33679;51.218;6.786;2022-08-16T01:58:59;26.60;99.90
10583;DHT22;33679;51.218;6.786;2022-08-16T02:01:28;26.60;99.90
10583;DHT22;33679;51.218;6.786;2022-08-16T02:03:56;26.50;99.90
10583;DHT22;33679;51.218;6.786;2022-08-16T02:06:23;26.60;99.90
10583;DHT22;33679;51.218;6.786;2022-08-16T02:08:52;26.50;99.90
10583;DHT22;33679;51.218;6.786;2022-08-16T02:11:21;26.50;99.90
10583;DHT22;33679;51.218;6.786;2022-08-16T02:13:50;26.50;99.90
10583;DHT22;33679;51.218;6.786;2022-08-16T02:16:18;26.50;99.90
10583;DHT22;33679;51.218;6.786;2022-08-16T02:18:47;26.40;99.90
10583;DHT22;33679;51.218;6.786;2022-08-16T02:21:14;26.40;99.90
10583;DHT22;33679;51.218;6.786;2022-08-16T02:23:42;26.40;99.90
10583;DHT22;33679;51.218;6.786;2022-08-16T02:26:13;26.30;99.90
10583;DHT22;33679;51.218;6.786;2022-08-16T02:28:41;26.20;99.90
10583;DHT22;33679;51.218;6.786;2022-08-16T02:31:12;26.20;99.90
10583;DHT22;33679;51.218;6.786;2022-08-16T02:33:41;26.20;99.90
10583;DHT22;33679;51.218;6.786;2022-08-16T02:36:13;26.20;99.90
10583;DHT22;33679;51.218;6.786;2022-08-16T02:38:41;26.20;99.90
10583;DHT22;33679;51.218;6.786;2022-08-16T02:41:09;26.20;99.90
10583;DHT22;33679;51.218;6.786;2022-08-16T02:43:37;26.20;99.90
10583;DHT22;33679;51.218;6.786;2022-08-16T02:46:06;26.10;99.90
10583;DHT22;33679;51.218;6.786;2022-08-16T02:48:38;26.10;99.90
10583;DHT22;33679;51.218;6.786;2022-08-16T02:51:07;26.10;99.90
10583;DHT22;33679;51.218;6.786;2022-08-16T02:53:37;26.10;99.90
10583;DHT22;33679;51.218;6.786;2022-08-16T02:56:05;26.00;99.90
10583;DHT22;33679;51.218;6.786;2022-08-16T02:58:34;26.00;99.90
10583;DHT22;33679;51.218;6.786;2022-08-16T03:01:01;26.00;99.90
10583;DHT22;33679;51.218;6.786;2022-08-16T03:03:28;25.90;99.90
10583;DHT22;33679;51.218;6.786;2022-08-16T03:05:57;25.90;99.90
10583;DHT22;33679;51.218;6.786;2022-08-16T03:08:26;25.90;99.90
10583;DHT22;33679;51.218;6.786;2022-08-16T03:10:54;25.80;99.90
10583;DHT22;33679;51.218;6.786;2022-08-16T03:13:23;25.80;99.90
10583;DHT22;33679;51.218;6.786;2022-08-16T03:15:50;25.80;99.90
10583;DHT22;33679;51.218;6.786;2022-08-16T03:18:18;25.70;99.90
10583;DHT22;33679;51.218;6.786;2022-08-16T03:20:46;25.70;99.90
10583;DHT22;33679;51.218;6.786;2022-08-16T03:23:15;25.70;99.90
10583;DHT22;33679;51.218;6.786;2022-08-16T03:25:42;25.60;99.90
10583;DHT22;33679;51.218;6.786;2022-08-16T03:28:09;25.60;99.90
10583;DHT22;33679;51.218;6.786;2022-08-16T03:30:38;25.60;99.90
10583;DHT22;33679;51.218;6.786;2022-08-16T03:33:09;25.60;99.90
10583;DHT22;33679;51.218;6.786;2022-08-16T03:35:44;25.60;99.90
10583;DHT22;33679;51.218;6.786;2022-08-16T03:38:25;25.60;99.90
10583;DHT22;33679;51.218;6.786;2022-08-16T03:40:53;25.60;99.90
10583;DHT22;33679;51.218;6.786;2022-08-16T03:43:23;25.60;99.90
10583;DHT22;33679;51.218;6.786;2022-08-16T03:45:52;25.60;99.90
10583;DHT22;33679;51.218;6.786;2022-08-16T03:48:27;25.60;99.90
10583;DHT22;33679;51.218;6.786;2022-08-16T03:50:56;25.60;99.90
10583;DHT22;33679;51.218;6.786;2022-08-16T03:53:24;25.50;99.90
10583;DHT22;33679;51.218;6.786;2022-08-16T03:55:54;25.50;99.90
10583;DHT22;33679;51.218;6.786;2022-08-16T03:58:21;25.40;99.90
10583;DHT22;33679;51.218;6.786;2022-08-16T04:00:56;25.40;99.90
10583;DHT22;33679;51.218;6.786;2022-08-16T04:03:23;25.30;99.90
10583;DHT22;33679;51.218;6.786;2022-08-16T04:05:51;25.30;99.90
10583;DHT22;33679;51.218;6.786;2022-08-16T04:08:19;25.20;99.90
10583;DHT22;33679;51.218;6.786;2022-08-16T04:10:54;25.20;99.90
10583;DHT22;33679;51.218;6.786;2022-08-16T04:13:23;25.20;99.90
10583;DHT22;33679;51.218;6.786;2022-08-16T04:15:51;25.20;99.90
10583;DHT22;33679;51.218;6.786;2022-08-16T04:18:21;25.20;99.90
10583;DHT22;33679;51.218;6.786;2022-08-16T04:20:53;25.20;99.90
10583;DHT22;33679;51.218;6.786;2022-08-16T04:23:24;25.20;99.90
10583;DHT22;33679;51.218;6.786;2022-08-16T04:25:55;25.20;99.90
10583;DHT22;33679;51.218;6.786;2022-08-16T04:28:25;25.20;99.90
10583;DHT22;33679;51.218;6.786;2022-08-16T04:30:53;25.20;99.90
10583;DHT22;33679;51.218;6.786;2022-08-16T04:33:21;25.10;99.90
10583;DHT22;33679;51.218;6.786;2022-08-16T04:35:51;25.10;99.90
10583;DHT22;33679;51.218;6.786;2022-08-16T04:38:18;25.10;99.90
10583;DHT22;33679;51.218;6.786;2022-08-16T04:40:46;25.10;99.90
10583;DHT22;33679;51.218;6.786;2022-08-16T04:43:16;25.10;99.90
10583;DHT22;33679;51.218;6.786;2022-08-16T04:45:44;25.10;99.90
10583;DHT22;33679;51.218;6.786;2022-08-16T04:48:16;25.20;99.90
10583;DHT22;33679;51.218;6.786;2022-08-16T04:50:53;25.20;99.90
10583;DHT22;33679;51.218;6.786;2022-08-16T04:53:26;25.20;99.90
10583;DHT22;33679;51.218;6.786;2022-08-16T04:55:54;25.20;99.90
10583;DHT22;33679;51.218;6.786;2022-08-16T04:58:25;25.20;99.90
10583;DHT22;33679;51.218;6.786;2022-08-16T05:00:55;25.20;99.90
10583;DHT22;33679;51.218;6.786;2022-08-16T05:03:26;25.20;99.90
10583;DHT22;33679;51.218;6.786;2022-08-16T05:05:54;25.20;99.90
10583;DHT22;33679;51.218;6.786;2022-08-16T05:08:23;25.20;99.90
10583;DHT22;33679;51.218;6.786;2022-08-16T05:11:03;25.30;99.90
10583;DHT22;33679;51.218;6.786;2022-08-16T05:13:35;25.30;99.90
10583;DHT22;33679;51.218;6.786;2022-08-16T05:16:03;25.30;99.90
10583;DHT22;33679;51.218;6.786;2022-08-16T05:18:33;25.40;99.90
10583;DHT22;33679;51.218;6.786;2022-08-16T05:21:04;25.40;99.90
10583;DHT22;33679;51.218;6.786;2022-08-16T05:23:33;25.40;99.90
10583;DHT22;33679;51.218;6.786;2022-08-16T05:26:01;25.40;99.90
10583;DHT22;33679;51.218;6.786;2022-08-16T05:28:29;25.50;99.90
10583;DHT22;33679;51.218;6.786;2022-08-16T05:30:57;25.50;99.90
10583;DHT22;33679;51.218;6.786;2022-08-16T05:33:28;25.60;99.90
10583;DHT22;33679;51.218;6.786;2022-08-16T05:35:57;25.60;99.90
10583;DHT22;33679;51.218;6.786;2022-08-16T05:38:30;25.70;99.90
10583;DHT22;33679;51.218;6.786;2022-08-16T05:41:01;25.70;99.90
10583;DHT22;33679;51.218;6.786;2022-08-16T05:43:36;25.70;99.90
10583;DHT22;33679;51.218;6.786;2022-08-16T05:46:05;25.80;99.90
10583;DHT22;33679;51.218;6.786;2022-08-16T05:48:33;25.80;99.90
10583;DHT22;33679;51.218;6.786;2022-08-16T05:51:08;25.80;99.90
10583;DHT22;33679;51.218;6.786;2022-08-16T05:53:39;25.80;99.90
10583;DHT22;33679;51.218;6.786;2022-08-16T05:56:09;25.80;99.90
10583;DHT22;33679;51.218;6.786;2022-08-16T05:58:43;25.80;99.90
10583;DHT22;33679;51.218;6.786;2022-08-16T06:01:14;25.90;99.90
10583;DHT22;33679;51.218;6.786;2022-08-16T06:03:46;25.80;99.90
10583;DHT22;33679;51.218;6.786;2022-08-16T06:06:32;25.80;99.90
10583;DHT22;33679;51.218;6.786;2022-08-16T06:09:00;25.80;99.90
10583;DHT22;33679;51.218;6.786;2022-08-16T06:11:28;25.80;99.90
10583;DHT22;33679;51.218;6.786;2022-08-16T06:13:59;25.90;99.90
10583;DHT22;33679;51.218;6.786;2022-08-16T06:16:47;25.90;99.90
10583;DHT22;33679;51.218;6.786;2022-08-16T06:19:14;25.90;99.90
10583;DHT22;33679;51.218;6.786;2022-08-16T06:21:54;26.00;99.90
10583;DHT22;33679;51.218;6.786;2022-08-16T06:24:21;26.00;99.90
10583;DHT22;33679;51.218;6.786;2022-08-16T06:26:48;26.00;99.90
10583;DHT22;33679;51.218;6.786;2022-08-16T06:29:16;26.10;99.90
10583;DHT22;33679;51.218;6.786;2022-08-16T06:31:49;26.10;99.90
10583;DHT22;33679;51.218;6.786;2022-08-16T06:34:20;26.10;99.90
10583;DHT22;33679;51.218;6.786;2022-08-16T06:36:47;26.20;99.90
10583;DHT22;33679;51.218;6.786;2022-08-16T06:39:30;26.20;99.90
10583;DHT22;33679;51.218;6.786;2022-08-16T06:42:20;26.30;99.90
10583;DHT22;33679;51.218;6.786;2022-08-16T06:45:09;26.40;99.90
10583;DHT22;33679;51.218;6.786;2022-08-16T06:47:40;26.40;99.90
10583;DHT22;33679;51.218;6.786;2022-08-16T06:50:12;26.50;99.90
10583;DHT22;33679;51.218;6.786;2022-08-16T06:52:46;26.50;99.90
10583;DHT22;33679;51.218;6.786;2022-08-16T06:55:15;26.60;99.90
10583;DHT22;33679;51.218;6.786;2022-08-16T06:57:52;26.60;99.90
10583;DHT22;33679;51.218;6.786;2022-08-16T07:00:21;26.60;99.90
10583;DHT22;33679;51.218;6.786;2022-08-16T07:03:12;26.60;99.90
10583;DHT22;33679;51.218;6.786;2022-08-16T07:05:41;26.50;99.90
10583;DHT22;33679;51.218;6.786;2022-08-16T07:08:15;26.60;99.90
10583;DHT22;33679;51.218;6.786;2022-08-16T07:10:42;26.60;99.90
10583;DHT22;33679;51.218;6.786;2022-08-16T07:13:12;26.70;99.90
10583;DHT22;33679;51.218;6.786;2022-08-16T07:15:41;26.70;99.90
10583;DHT22;33679;51.218;6.786;2022-08-16T07:18:09;26.70;99.90
10583;DHT22;33679;51.218;6.786;2022-08-16T07:20:37;26.70;99.90
10583;DHT22;33679;51.218;6.786;2022-08-16T07:23:06;26.70;99.90
10583;DHT22;33679;51.218;6.786;2022-08-16T07:25:42;26.80;99.90
10583;DHT22;33679;51.218;6.786;2022-08-16T07:28:12;26.80;99.90
10583;DHT22;33679;51.218;6.786;2022-08-16T07:30:40;26.80;99.90
10583;DHT22;33679;51.218;6.786;2022-08-16T07:33:12;26.80;99.90
10583;DHT22;33679;51.218;6.786;2022-08-16T07:35:44;26.90;99.90
10583;DHT22;33679;51.218;6.786;2022-08-16T07:38:14;27.00;99.90
10583;DHT22;33679;51.218;6.786;2022-08-16T07:40:48;27.10;99.90
10583;DHT22;33679;51.218;6.786;2022-08-16T07:43:25;27.10;99.90
10583;DHT22;33679;51.218;6.786;2022-08-16T07:45:54;27.10;99.90
10583;DHT22;33679;51.218;6.786;2022-08-16T07:48:21;27.20;99.90
10583;DHT22;33679;51.218;6.786;2022-08-16T07:50:53;27.20;99.90
10583;DHT22;33679;51.218;6.786;2022-08-16T07:53:35;27.30;99.90
10583;DHT22;33679;51.218;6.786;2022-08-16T07:56:05;27.30;99.90
10583;DHT22;33679;51.218;6.786;2022-08-16T07:58:38;27.40;99.90
10583;DHT22;33679;51.218;6.786;2022-08-16T08:01:11;27.40;99.90
10583;DHT22;33679;51.218;6.786;2022-08-16T08:03:45;27.50;99.90
10583;DHT22;33679;51.218;6.786;2022-08-16T08:06:15;27.40;99.90
10583;DHT22;33679;51.218;6.786;2022-08-16T08:08:52;27.40;99.90
10583;DHT22;33679;51.218;6.786;2022-08-16T08:11:20;27.50;99.90
10583;DHT22;33679;51.218;6.786;2022-08-16T08:13:48;27.50;99.90
10583;DHT22;33679;51.218;6.786;2022-08-16T08:16:16;27.50;99.90
10583;DHT22;33679;51.218;6.786;2022-08-16T08:18:44;27.60;99.90
10583;DHT22;33679;51.218;6.786;2022-08-16T08:21:12;27.60;99.90
10583;DHT22;33679;51.218;6.786;2022-08-16T08:23:39;27.70;99.90
10583;DHT22;33679;51.218;6.786;2022-08-16T08:26:09;27.70;99.90
10583;DHT22;33679;51.218;6.786;2022-08-16T08:28:36;27.80;99.90
10583;DHT22;33679;51.218;6.786;2022-08-16T08:31:05;27.80;99.90
10583;DHT22;33679;51.218;6.786;2022-08-16T08:33:37;27.90;99.90
10583;DHT22;33679;51.218;6.786;2022-08-16T08:36:06;27.90;99.90
10583;DHT22;33679;51.218;6.786;2022-08-16T08:38:40;27.90;99.90
10583;DHT22;33679;51.218;6.786;2022-08-16T08:41:13;28.00;99.90
10583;DHT22;33679;51.218;6.786;2022-08-16T08:43:40;28.00;99.90
10583;DHT22;33679;51.218;6.786;2022-08-16T08:46:14;28.10;99.90
10583;DHT22;33679;51.218;6.786;2022-08-16T08:48:41;28.00;99.90
10583;DHT22;33679;51.218;6.786;2022-08-16T08:51:16;28.00;99.90
10583;DHT22;33679;51.218;6.786;2022-08-16T08:54:05;28.00;99.90
10583;DHT22;33679;51.218;6.786;2022-08-16T08:56:38;28.00;99.90
10583;DHT22;33679;51.218;6.786;2022-08-16T08:59:17;28.00;99.90
10583;DHT22;33679;51.218;6.786;2022-08-16T09:01:47;28.10;99.90
10583;DHT22;33679;51.218;6.786;2022-08-16T09:04:22;28.00;99.90
10583;DHT22;33679;51.218;6.786;2022-08-16T09:06:49;28.00;99.90
10583;DHT22;33679;51.218;6.786;2022-08-16T09:09:20;28.00;99.90
10583;DHT22;33679;51.218;6.786;2022-08-16T09:11:54;28.10;99.90
10583;DHT22;33679;51.218;6.786;2022-08-16T09:14:22;28.10;99.90
10583;DHT22;33679;51.218;6.786;2022-08-16T09:16:50;28.20;99.90
10583;DHT22;33679;51.218;6.786;2022-08-16T09:19:17;28.30;99.90
10583;DHT22;33679;51.218;6.786;2022-08-16T09:21:47;28.30;99.90
10583;DHT22;33679;51.218;6.786;2022-08-16T09:24:17;28.40;99.90
10583;DHT22;33679;51.218;6.786;2022-08-16T09:26:46;28.50;99.90
10583;DHT22;33679;51.218;6.786;2022-08-16T09:29:15;28.50;99.90
10583;DHT22;33679;51.218;6.786;2022-08-16T09:31:42;28.60;99.90
10583;DHT22;33679;51.218;6.786;2022-08-16T09:34:12;28.60;99.90
10583;DHT22;33679;51.218;6.786;2022-08-16T09:36:43;28.60;99.90
10583;DHT22;33679;51.218;6.786;2022-08-16T09:39:10;28.70;99.90
10583;DHT22;33679;51.218;6.786;2022-08-16T09:41:37;28.70;99.90
10583;DHT22;33679;51.218;6.786;2022-08-16T09:44:04;28.80;99.90
10583;DHT22;33679;51.218;6.786;2022-08-16T09:46:38;28.90;99.90
10583;DHT22;33679;51.218;6.786;2022-08-16T09:49:16;29.00;99.90
10583;DHT22;33679;51.218;6.786;2022-08-16T09:51:45;29.00;99.90
10583;DHT22;33679;51.218;6.786;2022-08-16T09:54:13;29.00;99.90
10583;DHT22;33679;51.218;6.786;2022-08-16T09:56:40;29.10;99.90
10583;DHT22;33679;51.218;6.786;2022-08-16T09:59:09;29.20;99.90
10583;DHT22;33679;51.218;6.786;2022-08-16T10:01:41;29.20;99.90
10583;DHT22;33679;51.218;6.786;2022-08-16T10:04:10;29.10;99.90
10583;DHT22;33679;51.218;6.786;2022-08-16T10:06:37;29.20;99.90
10583;DHT22;33679;51.218;6.786;2022-08-16T10:09:09;29.30;99.90
10583;DHT22;33679;51.218;6.786;2022-08-16T10:11:44;29.30;99.90
10583;DHT22;33679;51.218;6.786;2022-08-16T10:14:34;29.30;99.90
10583;DHT22;33679;51.218;6.786;2022-08-16T10:17:05;29.30;99.90
10583;DHT22;33679;51.218;6.786;2022-08-16T10:19:33;29.40;99.80
10583;DHT22;33679;51.218;6.786;2022-08-16T10:22:05;29.50;99.10
10583;DHT22;33679;51.218;6.786;2022-08-16T10:24:33;29.50;99.00
10583;DHT22;33679;51.218;6.786;2022-08-16T10:27:01;29.60;99.00
10583;DHT22;33679;51.218;6.786;2022-08-16T10:29:34;29.50;99.60
10583;DHT22;33679;51.218;6.786;2022-08-16T10:32:03;29.50;99.00
10583;DHT22;33679;51.218;6.786;2022-08-16T10:34:31;29.60;98.70
10583;DHT22;33679;51.218;6.786;2022-08-16T10:37:11;29.60;98.70
10583;DHT22;33679;51.218;6.786;2022-08-16T10:39:45;29.70;98.70
10583;DHT22;33679;51.218;6.786;2022-08-16T10:42:13;29.80;98.40
10583;DHT22;33679;51.218;6.786;2022-08-16T10:44:42;29.80;98.20
10583;DHT22;33679;51.218;6.786;2022-08-16T10:47:15;30.00;96.60
10583;DHT22;33679;51.218;6.786;2022-08-16T10:49:47;30.10;96.70
10583;DHT22;33679;51.218;6.786;2022-08-16T10:52:19;30.00;96.80
10583;DHT22;33679;51.218;6.786;2022-08-16T10:54:56;30.10;96.70
10583;DHT22;33679;51.218;6.786;2022-08-16T10:57:27;30.10;96.60
10583;DHT22;33679;51.218;6.786;2022-08-16T11:00:14;30.10;96.20
10583;DHT22;33679;51.218;6.786;2022-08-16T11:02:43;30.30;95.70
10583;DHT22;33679;51.218;6.786;2022-08-16T11:05:15;30.40;96.00
10583;DHT22;33679;51.218;6.786;2022-08-16T11:07:59;30.40;95.40
10583;DHT22;33679;51.218;6.786;2022-08-16T11:10:30;30.50;95.20
10583;DHT22;33679;51.218;6.786;2022-08-16T11:12:58;30.50;95.20
10583;DHT22;33679;51.218;6.786;2022-08-16T11:15:26;30.50;95.20
10583;DHT22;33679;51.218;6.786;2022-08-16T11:18:01;30.70;95.20
10583;DHT22;33679;51.218;6.786;2022-08-16T11:20:30;30.70;95.10
10583;DHT22;33679;51.218;6.786;2022-08-16T11:22:57;30.70;94.70
10583;DHT22;33679;51.218;6.786;2022-08-16T11:25:27;30.70;94.30
10583;DHT22;33679;51.218;6.786;2022-08-16T11:28:01;30.70;94.10
10583;DHT22;33679;51.218;6.786;2022-08-16T11:30:29;30.80;93.90
10583;DHT22;33679;51.218;6.786;2022-08-16T11:32:58;30.90;93.70
10583;DHT22;33679;51.218;6.786;2022-08-16T11:38:21;31.00;93.20
10583;DHT22;33679;51.218;6.786;2022-08-16T11:40:58;30.90;93.30
10583;DHT22;33679;51.218;6.786;2022-08-16T11:43:32;31.00;93.40
10583;DHT22;33679;51.218;6.786;2022-08-16T11:46:03;31.00;93.20
10583;DHT22;33679;51.218;6.786;2022-08-16T11:48:36;31.10;93.20
10583;DHT22;33679;51.218;6.786;2022-08-16T11:51:05;31.10;93.20
10583;DHT22;33679;51.218;6.786;2022-08-16T11:53:35;31.10;93.30
10583;DHT22;33679;51.218;6.786;2022-08-16T11:56:03;31.20;93.20
10583;DHT22;33679;51.218;6.786;2022-08-16T11:58:37;31.20;93.30
10583;DHT22;33679;51.218;6.786;2022-08-16T12:01:08;31.20;93.20
10583;DHT22;33679;51.218;6.786;2022-08-16T12:03:37;31.20;93.20
10583;DHT22;33679;51.218;6.786;2022-08-16T12:06:07;31.20;93.10
10583;DHT22;33679;51.218;6.786;2022-08-16T12:08:47;31.30;93.00
10583;DHT22;33679;51.218;6.786;2022-08-16T12:11:15;31.40;93.00
10583;DHT22;33679;51.218;6.786;2022-08-16T12:13:43;31.50;92.80
10583;DHT22;33679;51.218;6.786;2022-08-16T12:16:11;31.50;92.60
10583;DHT22;33679;51.218;6.786;2022-08-16T12:18:49;31.60;92.60
10583;DHT22;33679;51.218;6.786;2022-08-16T12:21:17;31.70;92.50
10583;DHT22;33679;51.218;6.786;2022-08-16T12:23:46;31.80;92.50
10583;DHT22;33679;51.218;6.786;2022-08-16T12:26:13;31.90;92.40
10583;DHT22;33679;51.218;6.786;2022-08-16T12:28:47;31.90;92.20
10583;DHT22;33679;51.218;6.786;2022-08-16T12:31:21;31.90;92.10
10583;DHT22;33679;51.218;6.786;2022-08-16T12:33:49;31.90;92.10
10583;DHT22;33679;51.218;6.786;2022-08-16T12:36:22;31.90;92.00
10583;DHT22;33679;51.218;6.786;2022-08-16T12:38:58;32.00;92.00
10583;DHT22;33679;51.218;6.786;2022-08-16T12:41:25;31.90;91.80
10583;DHT22;33679;51.218;6.786;2022-08-16T12:43:55;32.00;91.80
10583;DHT22;33679;51.218;6.786;2022-08-16T12:46:24;31.90;91.80
10583;DHT22;33679;51.218;6.786;2022-08-16T12:48:59;32.00;91.80
10583;DHT22;33679;51.218;6.786;2022-08-16T12:51:29;32.00;91.60
10583;DHT22;33679;51.218;6.786;2022-08-16T12:54:00;32.00;91.60
10583;DHT22;33679;51.218;6.786;2022-08-16T12:56:35;32.00;91.50
10583;DHT22;33679;51.218;6.786;2022-08-16T12:59:09;32.10;91.30
10583;DHT22;33679;51.218;6.786;2022-08-16T13:01:37;32.20;91.30
10583;DHT22;33679;51.218;6.786;2022-08-16T13:04:15;32.30;91.00
10583;DHT22;33679;51.218;6.786;2022-08-16T13:06:43;32.30;90.90
10583;DHT22;33679;51.218;6.786;2022-08-16T13:09:12;32.40;91.00
10583;DHT22;33679;51.218;6.786;2022-08-16T13:12:01;32.60;90.60
10583;DHT22;33679;51.218;6.786;2022-08-16T13:14:38;32.70;90.40
10583;DHT22;33679;51.218;6.786;2022-08-16T13:17:17;32.70;90.40
10583;DHT22;33679;51.218;6.786;2022-08-16T13:19:48;32.80;90.30
10583;DHT22;33679;51.218;6.786;2022-08-16T13:22:17;32.90;90.50
10583;DHT22;33679;51.218;6.786;2022-08-16T13:24:52;32.90;89.60
10583;DHT22;33679;51.218;6.786;2022-08-16T13:27:19;33.00;88.60
10583;DHT22;33679;51.218;6.786;2022-08-16T13:29:47;33.00;88.30
10583;DHT22;33679;51.218;6.786;2022-08-16T13:32:14;33.00;87.70
10583;DHT22;33679;51.218;6.786;2022-08-16T13:34:54;33.00;87.90
10583;DHT22;33679;51.218;6.786;2022-08-16T13:37:23;33.10;87.90
10583;DHT22;33679;51.218;6.786;2022-08-16T13:39:52;33.20;87.40
10583;DHT22;33679;51.218;6.786;2022-08-16T13:42:19;33.20;87.70
10583;DHT22;33679;51.218;6.786;2022-08-16T13:44:57;33.20;87.50
10583;DHT22;33679;51.218;6.786;2022-08-16T13:47:25;33.10;87.70
10583;DHT22;33679;51.218;6.786;2022-08-16T13:49:55;33.20;87.20
10583;DHT22;33679;51.218;6.786;2022-08-16T13:52:22;33.10;87.00
10583;DHT22;33679;51.218;6.786;2022-08-16T13:54:57;33.10;87.00
10583;DHT22;33679;51.218;6.786;2022-08-16T13:57:24;33.00;87.10
10583;DHT22;33679;51.218;6.786;2022-08-16T13:59:51;33.00;86.30
10583;DHT22;33679;51.218;6.786;2022-08-16T14:02:20;33.00;86.10
10583;DHT22;33679;51.218;6.786;2022-08-16T14:05:05;33.00;86.20
10583;DHT22;33679;51.218;6.786;2022-08-16T14:07:34;32.90;86.40
10583;DHT22;33679;51.218;6.786;2022-08-16T14:10:22;32.90;86.70
10583;DHT22;33679;51.218;6.786;2022-08-16T14:12:49;32.80;86.80
10583;DHT22;33679;51.218;6.786;2022-08-16T14:15:28;32.70;86.80
10583;DHT22;33679;51.218;6.786;2022-08-16T14:17:56;32.60;87.10
10583;DHT22;33679;51.218;6.786;2022-08-16T14:20:35;32.60;87.40
10583;DHT22;33679;51.218;6.786;2022-08-16T14:23:03;32.60;87.50
10583;DHT22;33679;51.218;6.786;2022-08-16T14:25:32;32.60;87.20
10583;DHT22;33679;51.218;6.786;2022-08-16T14:28:00;32.60;87.10
10583;DHT22;33679;51.218;6.786;2022-08-16T14:30:29;32.50;86.70
10583;DHT22;33679;51.218;6.786;2022-08-16T14:32:59;32.60;86.40
10583;DHT22;33679;51.218;6.786;2022-08-16T14:35:31;32.70;86.30
10583;DHT22;33679;51.218;6.786;2022-08-16T14:37:59;32.80;86.40
10583;DHT22;33679;51.218;6.786;2022-08-16T14:40:37;32.80;86.20
10583;DHT22;33679;51.218;6.786;2022-08-16T14:43:06;32.80;85.30
10583;DHT22;33679;51.218;6.786;2022-08-16T14:45:33;32.90;85.20
10583;DHT22;33679;51.218;6.786;2022-08-16T14:48:02;32.80;84.80
10583;DHT22;33679;51.218;6.786;2022-08-16T14:50:43;32.90;84.80
10583;DHT22;33679;51.218;6.786;2022-08-16T14:53:11;32.80;84.60
10583;DHT22;33679;51.218;6.786;2022-08-16T14:55:42;32.80;84.80
10583;DHT22;33679;51.218;6.786;2022-08-16T14:58:20;32.80;84.80
10583;DHT22;33679;51.218;6.786;2022-08-16T15:00:54;32.90;84.70
10583;DHT22;33679;51.218;6.786;2022-08-16T15:03:24;32.90;85.00
10583;DHT22;33679;51.218;6.786;2022-08-16T15:06:10;32.90;84.30
10583;DHT22;33679;51.218;6.786;2022-08-16T15:08:37;32.90;84.20
10583;DHT22;33679;51.218;6.786;2022-08-16T15:11:06;32.90;84.30
10583;DHT22;33679;51.218;6.786;2022-08-16T15:13:53;33.00;83.90
10583;DHT22;33679;51.218;6.786;2022-08-16T15:16:24;33.10;84.20
10583;DHT22;33679;51.218;6.786;2022-08-16T15:19:10;33.20;84.40
10583;DHT22;33679;51.218;6.786;2022-08-16T15:21:38;33.20;84.40
10583;DHT22;33679;51.218;6.786;2022-08-16T15:24:05;33.30;84.20
10583;DHT22;33679;51.218;6.786;2022-08-16T15:26:42;33.30;84.10
10583;DHT22;33679;51.218;6.786;2022-08-16T15:29:11;33.30;84.00
10583;DHT22;33679;51.218;6.786;2022-08-16T15:31:41;33.30;84.20
10583;DHT22;33679;51.218;6.786;2022-08-16T15:36:54;33.20;83.80
10583;DHT22;33679;51.218;6.786;2022-08-16T15:39:22;33.20;83.90
10583;DHT22;33679;51.218;6.786;2022-08-16T15:42:05;33.00;84.20
10583;DHT22;33679;51.218;6.786;2022-08-16T15:44:34;33.00;84.50
10583;DHT22;33679;51.218;6.786;2022-08-16T15:47:05;32.90;84.70
10583;DHT22;33679;51.218;6.786;2022-08-16T15:49:43;32.90;84.50
10583;DHT22;33679;51.218;6.786;2022-08-16T15:52:18;32.80;85.00
10583;DHT22;33679;51.218;6.786;2022-08-16T15:54:48;32.80;84.90
10583;DHT22;33679;51.218;6.786;2022-08-16T15:57:26;32.80;84.80
10583;DHT22;33679;51.218;6.786;2022-08-16T15:59:54;32.80;84.90